Time;durP1;ratioP1;P1;durP2;ratioP2;P2;SDS_P1;SDS_P2;PMS_P1;PMS_P2;Temp;Humidity;BMP_temperature;BMP_pressure;BME280_temperature;BME280_humidity;BME280_pressure;Samples;Min_cycle;Max_cycle;Signal;HPM_P1;HPM_P2
2021/12/29 00:01:23;;;;;;;1.73;0.50;;;9.40;99.90;;;;;;5015244;28;20472;-66
2021/12/29 00:03:49;;;;;;;1.38;0.45;;;9.40;99.90;;;;;;5015210;28;20022;-67
2021/12/29 00:06:16;;;;;;;4.10;0.45;;;9.40;99.90;;;;;;5015215;28;20108;-68
2021/12/29 00:08:42;;;;;;;1.05;0.40;;;9.40;99.90;;;;;;5012846;28;20230;-66
2021/12/29 00:11:08;;;;;;;3.08;0.50;;;9.40;99.90;;;;;;5014320;28;20468;-67
2021/12/29 00:13:34;;;;;;;3.60;0.50;;;9.50;99.90;;;;;;5012316;28;20032;-67
2021/12/29 00:16:00;;;;;;;0.80;0.25;;;9.50;99.90;;;;;;5012984;28;20034;-67
2021/12/29 00:18:32;;;;;;;0.98;0.30;;;9.50;99.90;;;;;;5015443;28;20037;-71
2021/12/29 00:20:59;;;;;;;;;;;9.50;99.90;;;;;;5015657;28;20042;-69
2021/12/29 00:23:25;;;;;;;1.70;0.32;;;9.50;99.90;;;;;;5012584;28;19910;-66
2021/12/29 00:25:51;;;;;;;1.92;0.30;;;9.50;99.90;;;;;;5014101;28;20060;-67
2021/12/29 00:28:17;;;;;;;4.30;0.38;;;9.60;99.90;;;;;;5013196;28;20117;-65
2021/12/29 00:30:44;;;;;;;3.28;0.68;;;9.60;99.90;;;;;;5013563;28;20058;-69
2021/12/29 00:33:10;;;;;;;2.10;0.63;;;9.60;99.90;;;;;;5014243;28;20105;-66
2021/12/29 00:35:38;;;;;;;1.38;0.32;;;9.60;99.90;;;;;;5013351;28;20058;-67
2021/12/29 00:38:06;;;;;;;1.48;0.30;;;9.60;99.90;;;;;;5013855;28;20022;-68
2021/12/29 00:40:33;;;;;;;0.98;0.22;;;9.60;99.90;;;;;;5013134;28;20033;-66
2021/12/29 00:42:58;;;;;;;2.80;0.80;;;9.60;99.90;;;;;;5012723;28;20022;-67
2021/12/29 00:45:24;;;;;;;2.90;0.43;;;9.70;99.90;;;;;;5013596;28;20456;-67
2021/12/29 00:47:50;;;;;;;1.33;0.30;;;9.60;99.90;;;;;;5013731;28;20022;-67
2021/12/29 00:50:16;;;;;;;0.80;0.45;;;9.60;99.90;;;;;;5013800;28;20037;-71
2021/12/29 00:52:46;;;;;;;1.17;0.40;;;9.70;99.90;;;;;;5011616;28;20041;-67
2021/12/29 00:55:16;;;;;;;1.92;0.25;;;9.70;99.90;;;;;;5013867;28;20065;-70
2021/12/29 00:57:43;;;;;;;3.28;0.95;;;9.70;99.90;;;;;;5013108;28;20034;-68
2021/12/29 01:00:15;;;;;;;3.30;0.47;;;9.70;99.90;;;;;;5013527;28;20188;-65
2021/12/29 01:02:41;;;;;;;2.42;0.50;;;9.70;99.90;;;;;;5011653;28;20332;-67
2021/12/29 01:05:09;;;;;;;1.58;0.43;;;9.80;99.90;;;;;;5013257;28;20490;-69
2021/12/29 01:07:35;;;;;;;1.75;0.60;;;9.70;99.90;;;;;;5013250;28;20022;-68
2021/12/29 01:10:03;;;;;;;2.65;0.52;;;9.70;99.90;;;;;;5013497;28;20033;-72
2021/12/29 01:12:29;;;;;;;1.90;0.47;;;9.70;99.90;;;;;;5011523;28;20065;-67
2021/12/29 01:14:56;;;;;;;1.42;0.52;;;9.70;99.90;;;;;;5013174;28;20065;-68
2021/12/29 01:17:23;;;;;;;2.80;0.57;;;9.70;99.90;;;;;;5012735;28;20464;-73
2021/12/29 01:19:53;;;;;;;0.82;0.32;;;9.70;99.90;;;;;;5011889;28;20036;-69
2021/12/29 01:22:20;;;;;;;2.33;0.50;;;9.80;99.90;;;;;;5011779;28;20026;-68
2021/12/29 01:24:46;;;;;;;3.60;0.70;;;9.80;99.90;;;;;;5011338;28;20472;-66
2021/12/29 01:27:13;;;;;;;1.67;0.55;;;9.80;99.90;;;;;;5013041;28;20110;-67
2021/12/29 01:29:39;;;;;;;2.58;0.43;;;9.80;99.90;;;;;;5011212;28;20053;-69
2021/12/29 01:32:06;;;;;;;3.20;0.60;;;9.80;99.90;;;;;;5011653;28;20042;-66
2021/12/29 01:34:32;;;;;;;1.15;0.10;;;9.80;99.90;;;;;;5012500;28;20030;-68
2021/12/29 01:36:59;;;;;;;2.88;0.30;;;9.80;99.90;;;;;;5013128;28;20028;-67
2021/12/29 01:39:26;;;;;;;7.72;1.40;;;9.80;99.90;;;;;;5012842;28;20057;-68
2021/12/29 01:41:55;;;;;;;0.88;0.17;;;9.80;99.90;;;;;;5013362;28;20044;-74
2021/12/29 01:44:24;;;;;;;1.83;0.20;;;9.80;99.90;;;;;;5013758;28;20066;-69
2021/12/29 01:46:51;;;;;;;0.93;0.38;;;9.80;99.90;;;;;;5014813;28;20049;-67
2021/12/29 01:49:17;;;;;;;0.50;0.20;;;9.80;99.90;;;;;;5014226;28;20022;-68
2021/12/29 01:52:01;;;;;;;1.67;0.30;;;9.80;99.90;;;;;;5012027;28;20029;-69
2021/12/29 01:54:28;;;;;;;1.70;0.30;;;9.80;99.90;;;;;;5011466;28;20488;-68
2021/12/29 01:56:58;;;;;;;2.67;0.47;;;9.80;99.90;;;;;;5011968;28;20022;-72
2021/12/29 01:59:25;;;;;;;1.38;0.22;;;9.70;99.90;;;;;;5011158;28;20033;-66
2021/12/29 02:01:51;;;;;;;3.35;0.40;;;9.70;99.90;;;;;;5010380;28;20046;-66
2021/12/29 02:04:18;;;;;;;0.98;0.20;;;9.80;99.90;;;;;;5011910;28;20028;-68
2021/12/29 02:06:45;;;;;;;1.95;0.30;;;9.80;99.90;;;;;;5012055;28;20034;-68
2021/12/29 02:09:11;;;;;;;0.75;0.13;;;9.70;99.90;;;;;;5013861;28;20422;-67
2021/12/29 02:11:38;;;;;;;1.80;0.40;;;9.70;99.90;;;;;;5012022;28;20104;-70
2021/12/29 02:14:06;;;;;;;0.85;0.38;;;9.70;99.90;;;;;;5012231;28;20382;-66
2021/12/29 02:16:32;;;;;;;1.35;0.55;;;9.60;99.90;;;;;;5011435;28;20060;-66
2021/12/29 02:19:00;;;;;;;0.32;0.20;;;9.60;99.90;;;;;;5011536;28;20050;-67
2021/12/29 02:21:29;;;;;;;2.33;0.30;;;9.60;99.90;;;;;;5011758;28;20408;-66
2021/12/29 02:26:36;;;;;;;1.67;0.30;;;9.60;99.90;;;;;;5011480;28;20046;-67
2021/12/29 02:29:04;;;;;;;2.88;0.20;;;9.60;99.90;;;;;;5012029;28;20061;-67
2021/12/29 02:31:31;;;;;;;4.45;0.30;;;9.60;99.90;;;;;;5011394;28;20395;-68
2021/12/29 02:33:57;;;;;;;1.20;0.30;;;9.60;99.90;;;;;;5011936;28;20088;-67
2021/12/29 02:36:24;;;;;;;4.95;0.82;;;9.50;99.90;;;;;;5011245;28;20032;-68
2021/12/29 02:38:53;;;;;;;0.68;0.30;;;9.50;99.90;;;;;;5012069;28;20026;-70
2021/12/29 02:41:20;;;;;;;0.75;0.50;;;9.50;99.90;;;;;;5012205;28;20025;-67
2021/12/29 02:43:46;;;;;;;3.45;1.25;;;9.50;99.90;;;;;;5012535;28;20483;-72
2021/12/29 02:46:16;;;;;;;1.35;0.35;;;9.50;99.90;;;;;;5013787;28;20033;-68
2021/12/29 02:48:55;;;;;;;2.83;1.52;;;9.60;99.90;;;;;;5011303;28;20110;-66
2021/12/29 02:51:22;;;;;;;2.13;0.57;;;9.60;99.90;;;;;;5013063;28;20095;-67
2021/12/29 02:53:48;;;;;;;3.08;0.90;;;9.60;99.90;;;;;;5012670;28;20030;-69
2021/12/29 02:56:14;;;;;;;1.08;0.40;;;9.60;99.90;;;;;;5011002;28;20555;-68
2021/12/29 02:58:40;;;;;;;3.08;0.65;;;9.60;99.90;;;;;;5012163;28;20125;-68
2021/12/29 03:01:09;;;;;;;1.33;0.47;;;9.60;99.90;;;;;;5012569;28;20053;-71
2021/12/29 03:03:38;;;;;;;3.33;1.00;;;9.60;99.90;;;;;;5015773;28;20395;-68
2021/12/29 03:06:08;;;;;;;1.40;0.43;;;9.60;99.90;;;;;;5016272;28;20029;-68
2021/12/29 03:08:35;;;;;;;2.63;0.40;;;9.60;99.90;;;;;;5015094;28;20022;-67
2021/12/29 03:11:02;;;;;;;1.52;0.60;;;9.60;99.90;;;;;;5015449;28;20250;-71
2021/12/29 03:13:29;;;;;;;1.33;0.40;;;9.60;99.90;;;;;;5015767;28;20145;-67
2021/12/29 03:15:56;;;;;;;0.98;0.40;;;9.50;99.90;;;;;;5014058;28;20360;-68
2021/12/29 03:18:21;;;;;;;1.23;0.30;;;9.60;99.90;;;;;;5014625;28;20026;-70
2021/12/29 03:20:48;;;;;;;1.92;0.40;;;9.60;99.90;;;;;;5015012;28;20042;-69
2021/12/29 03:23:15;;;;;;;1.42;0.32;;;9.50;99.90;;;;;;5015360;28;20109;-68
2021/12/29 03:25:41;;;;;;;0.73;0.40;;;9.60;99.90;;;;;;5013380;28;20559;-68
2021/12/29 03:28:08;;;;;;;0.68;0.47;;;9.50;99.90;;;;;;5014728;28;20495;-68
2021/12/29 03:30:36;;;;;;;0.55;0.40;;;9.60;99.90;;;;;;5014404;28;20124;-70
2021/12/29 03:33:03;;;;;;;0.47;0.20;;;9.60;99.90;;;;;;5014517;28;20463;-69
2021/12/29 03:35:31;;;;;;;1.02;0.32;;;9.60;99.90;;;;;;5014388;28;20442;-67
2021/12/29 03:37:59;;;;;;;4.07;0.57;;;9.60;99.90;;;;;;5013607;28;20034;-67
2021/12/29 03:40:25;;;;;;;0.80;0.40;;;9.60;99.90;;;;;;5012807;28;20072;-67
2021/12/29 03:42:51;;;;;;;1.25;0.30;;;9.70;99.90;;;;;;5013714;28;20107;-69
2021/12/29 03:45:17;;;;;;;0.57;0.30;;;9.70;99.90;;;;;;5015094;28;20479;-68
2021/12/29 03:47:42;;;;;;;2.85;0.50;;;9.70;99.90;;;;;;5012970;28;20026;-68
2021/12/29 03:50:11;;;;;;;1.17;0.40;;;9.70;99.90;;;;;;5014717;28;20120;-67
2021/12/29 03:52:37;;;;;;;3.35;0.60;;;9.70;99.90;;;;;;5014061;28;20038;-67
2021/12/29 03:55:03;;;;;;;1.00;0.40;;;9.60;99.90;;;;;;5014632;28;20037;-68
2021/12/29 03:57:29;;;;;;;0.80;0.20;;;9.60;99.90;;;;;;5012818;28;20155;-68
2021/12/29 03:59:55;;;;;;;1.27;0.30;;;9.70;99.90;;;;;;5014357;28;20112;-68
2021/12/29 04:02:21;;;;;;;1.08;0.50;;;9.70;99.90;;;;;;5015963;28;20038;-69
2021/12/29 04:04:47;;;;;;;0.98;0.20;;;9.80;99.90;;;;;;5014644;28;20017;-68
2021/12/29 04:07:12;;;;;;;2.38;0.35;;;9.80;99.90;;;;;;5012935;28;20116;-67
2021/12/29 04:09:38;;;;;;;1.17;0.30;;;9.80;99.90;;;;;;5013880;28;20045;-67
2021/12/29 04:12:04;;;;;;;2.75;0.40;;;9.80;99.90;;;;;;5014749;28;20026;-69
2021/12/29 04:14:30;;;;;;;3.55;0.30;;;9.80;99.90;;;;;;5012907;28;20435;-68
2021/12/29 04:16:58;;;;;;;1.20;0.22;;;9.80;99.90;;;;;;5014533;28;20026;-69
2021/12/29 04:19:40;;;;;;;0.85;0.15;;;9.80;99.90;;;;;;5013697;28;20089;-69
2021/12/29 04:22:07;;;;;;;1.05;0.30;;;9.80;99.90;;;;;;5013860;28;20041;-68
2021/12/29 04:24:34;;;;;;;0.85;0.20;;;9.80;99.90;;;;;;5014325;28;20022;-69
2021/12/29 04:27:00;;;;;;;2.25;0.47;;;9.80;99.90;;;;;;5015395;28;20519;-69
2021/12/29 04:29:26;;;;;;;1.02;0.17;;;9.90;99.90;;;;;;5014751;28;20030;-69
2021/12/29 04:31:51;;;;;;;1.38;0.40;;;9.80;99.90;;;;;;5013285;28;20557;-68
2021/12/29 04:34:17;;;;;;;1.05;0.32;;;9.80;99.90;;;;;;5013655;28;20128;-68
2021/12/29 04:36:42;;;;;;;1.17;0.20;;;9.80;99.90;;;;;;5013740;28;20084;-68
2021/12/29 04:39:08;;;;;;;3.63;1.65;;;9.80;99.90;;;;;;5015457;28;20030;-68
2021/12/29 04:41:35;;;;;;;1.40;0.40;;;9.80;99.90;;;;;;5011803;28;20044;-68
2021/12/29 04:44:01;;;;;;;0.55;0.20;;;9.70;99.90;;;;;;5012565;28;20034;-68
2021/12/29 04:46:35;;;;;;;0.85;0.30;;;9.70;99.90;;;;;;5011824;28;20067;-69
2021/12/29 04:49:02;;;;;;;2.05;0.25;;;9.80;99.90;;;;;;5013362;28;20030;-67
2021/12/29 04:51:35;;;;;;;0.50;0.28;;;9.80;99.90;;;;;;5011357;28;20033;-67
2021/12/29 04:54:05;;;;;;;0.63;0.20;;;9.80;99.90;;;;;;5012173;28;20030;-68
2021/12/29 04:56:32;;;;;;;1.87;0.70;;;9.80;99.90;;;;;;5012963;28;20549;-69
2021/12/29 04:58:58;;;;;;;3.97;0.20;;;9.80;99.90;;;;;;5013238;28;20104;-66
2021/12/29 05:01:24;;;;;;;2.75;0.32;;;9.80;99.90;;;;;;5012663;28;20034;-68
2021/12/29 05:03:50;;;;;;;0.40;0.13;;;9.80;99.90;;;;;;5012106;28;20037;-67
2021/12/29 05:08:41;;;;;;;0.65;0.30;;;9.80;99.90;;;;;;5012724;28;20320;-67
2021/12/29 05:11:10;;;;;;;0.65;0.20;;;9.80;99.90;;;;;;5013034;28;20022;-68
2021/12/29 05:13:38;;;;;;;1.13;0.45;;;9.70;99.90;;;;;;5011228;28;20495;-68
2021/12/29 05:16:04;;;;;;;0.75;0.40;;;9.80;99.90;;;;;;5011807;28;20029;-68
2021/12/29 05:18:32;;;;;;;1.65;0.30;;;9.80;99.90;;;;;;5012201;28;20069;-68
2021/12/29 05:20:59;;;;;;;0.77;0.30;;;9.80;99.90;;;;;;5011590;28;20034;-67
2021/12/29 05:23:26;;;;;;;0.65;0.30;;;9.80;99.90;;;;;;5010977;28;20088;-67
2021/12/29 05:25:53;;;;;;;1.67;0.70;;;9.80;99.90;;;;;;5011609;28;20041;-67
2021/12/29 05:28:19;;;;;;;0.82;0.20;;;9.80;99.90;;;;;;5012774;28;20097;-67
2021/12/29 05:30:46;;;;;;;1.25;0.30;;;9.80;99.90;;;;;;5010780;28;20054;-68
2021/12/29 05:33:12;;;;;;;2.20;0.30;;;9.80;99.90;;;;;;5013019;28;20035;-67
2021/12/29 05:35:38;;;;;;;2.47;0.40;;;9.80;99.90;;;;;;5011725;28;20348;-67
2021/12/29 05:38:04;;;;;;;3.08;0.40;;;9.90;99.90;;;;;;5012871;28;20093;-66
2021/12/29 05:40:30;;;;;;;1.20;1.05;;;9.90;99.90;;;;;;5012321;28;20112;-73
2021/12/29 05:42:57;;;;;;;1.50;0.57;;;9.90;99.90;;;;;;5012762;28;20391;-68
2021/12/29 05:45:24;;;;;;;0.68;0.20;;;9.90;99.90;;;;;;5010780;28;20055;-67
2021/12/29 05:47:50;;;;;;;0.60;0.28;;;10.00;99.90;;;;;;5012268;28;20041;-68
2021/12/29 05:50:19;;;;;;;2.08;0.40;;;10.00;99.90;;;;;;5011557;28;20034;-71
2021/12/29 05:52:45;;;;;;;2.53;0.70;;;10.00;99.90;;;;;;5010558;28;20034;-66
2021/12/29 05:55:13;;;;;;;0.40;0.30;;;9.90;99.90;;;;;;5011459;28;20045;-67
2021/12/29 05:57:39;;;;;;;0.93;0.50;;;9.90;99.90;;;;;;5010440;28;20506;-68
2021/12/29 06:00:08;;;;;;;1.30;0.50;;;10.00;99.90;;;;;;5012443;28;20115;-67
2021/12/29 06:02:34;;;;;;;0.60;0.30;;;10.00;99.90;;;;;;5010630;28;20121;-67
2021/12/29 06:04:59;;;;;;;2.78;0.50;;;10.00;99.90;;;;;;5011966;28;20054;-66
2021/12/29 06:07:25;;;;;;;1.30;0.40;;;10.00;99.90;;;;;;5012768;28;20030;-66
2021/12/29 06:09:51;;;;;;;1.90;0.40;;;9.90;99.90;;;;;;5012186;28;20037;-67
2021/12/29 06:12:16;;;;;;;0.73;0.40;;;9.90;99.90;;;;;;5011301;28;20029;-68
2021/12/29 06:14:44;;;;;;;2.00;0.70;;;9.90;99.90;;;;;;5011525;28;20032;-67
2021/12/29 06:17:11;;;;;;;1.23;0.85;;;10.00;99.90;;;;;;5012997;28;20436;-68
2021/12/29 06:19:37;;;;;;;2.20;0.60;;;9.90;99.90;;;;;;5010340;28;20053;-68
2021/12/29 06:22:04;;;;;;;1.25;0.75;;;9.90;99.90;;;;;;5012002;28;20085;-69
2021/12/29 06:24:29;;;;;;;1.10;0.50;;;9.90;99.90;;;;;;5011147;28;20125;-68
2021/12/29 06:26:55;;;;;;;2.25;0.85;;;9.90;99.90;;;;;;5011655;28;20113;-66
2021/12/29 06:29:21;;;;;;;1.58;0.68;;;9.90;99.90;;;;;;5011693;28;20030;-68
2021/12/29 06:31:48;;;;;;;1.90;0.73;;;9.90;99.90;;;;;;5010721;28;20033;-67
2021/12/29 06:34:13;;;;;;;1.38;0.43;;;9.90;99.90;;;;;;5012584;28;20041;-67
2021/12/29 06:36:40;;;;;;;1.92;0.57;;;9.90;99.90;;;;;;5011797;28;20026;-67
2021/12/29 06:39:06;;;;;;;2.67;0.60;;;9.80;99.90;;;;;;5017228;28;20028;-68
2021/12/29 06:41:32;;;;;;;1.63;0.57;;;9.80;99.90;;;;;;5016223;28;20025;-66
2021/12/29 06:43:57;;;;;;;2.45;0.80;;;9.90;99.90;;;;;;5016782;28;20026;-65
2021/12/29 06:46:23;;;;;;;0.85;0.57;;;9.90;99.90;;;;;;5015066;28;20152;-67
2021/12/29 06:48:49;;;;;;;1.52;0.88;;;9.90;99.90;;;;;;5014361;28;20369;-67
2021/12/29 06:51:14;;;;;;;1.75;0.77;;;9.90;99.90;;;;;;5015624;28;20034;-68
2021/12/29 06:53:40;;;;;;;1.20;0.63;;;10.00;99.90;;;;;;5014150;28;20040;-65
2021/12/29 06:56:06;;;;;;;2.95;0.60;;;10.00;99.90;;;;;;5015215;28;20076;-67
2021/12/29 06:58:33;;;;;;;1.17;0.50;;;9.90;99.90;;;;;;5014681;28;20092;-67
2021/12/29 07:00:59;;;;;;;2.65;0.60;;;9.90;99.90;;;;;;5015508;28;20033;-68
2021/12/29 07:03:26;;;;;;;1.58;0.90;;;9.90;99.90;;;;;;5014914;28;20041;-68
2021/12/29 07:05:53;;;;;;;1.77;0.60;;;9.80;99.90;;;;;;5015483;28;20467;-71
2021/12/29 07:08:18;;;;;;;1.23;0.95;;;9.80;99.90;;;;;;5015375;28;20096;-68
2021/12/29 07:10:45;;;;;;;3.80;0.70;;;9.80;99.90;;;;;;5014483;28;20038;-67
2021/12/29 07:13:11;;;;;;;2.30;0.77;;;9.80;99.90;;;;;;5015501;28;20033;-67
2021/12/29 07:15:37;;;;;;;2.67;0.88;;;9.80;99.90;;;;;;5015010;28;20113;-68
2021/12/29 07:18:04;;;;;;;3.10;0.90;;;9.80;99.90;;;;;;5013663;28;20137;-66
2021/12/29 07:20:30;;;;;;;2.10;1.35;;;9.80;99.90;;;;;;5014410;28;20030;-66
2021/12/29 07:22:56;;;;;;;0.95;0.85;;;9.70;99.90;;;;;;5015133;28;20160;-67
2021/12/29 07:25:22;;;;;;;3.72;1.13;;;9.80;99.90;;;;;;5013169;28;20395;-69
2021/12/29 07:27:48;;;;;;;1.17;0.77;;;9.80;99.90;;;;;;5015017;28;20022;-67
2021/12/29 07:30:14;;;;;;;2.80;1.33;;;9.80;99.90;;;;;;5014858;28;20052;-70
2021/12/29 07:32:40;;;;;;;2.40;0.70;;;9.80;99.90;;;;;;5014842;28;20391;-69
2021/12/29 07:35:06;;;;;;;2.85;1.63;;;9.70;99.90;;;;;;5016261;28;20030;-70
2021/12/29 07:37:32;;;;;;;1.85;0.90;;;9.80;99.90;;;;;;5015212;28;20029;-67
2021/12/29 07:39:59;;;;;;;2.92;0.80;;;9.80;99.90;;;;;;5015280;28;20100;-68
2021/12/29 07:42:25;;;;;;;3.58;1.45;;;9.80;99.90;;;;;;5014298;28;20060;-67
2021/12/29 07:44:51;;;;;;;2.95;1.27;;;9.70;99.90;;;;;;5014897;28;20057;-67
2021/12/29 07:47:17;;;;;;;4.50;1.50;;;9.80;99.90;;;;;;5014632;28;20026;-70
2021/12/29 07:49:43;;;;;;;3.65;1.35;;;9.80;99.90;;;;;;5013249;28;20383;-68
2021/12/29 07:52:08;;;;;;;1.30;0.73;;;9.80;99.90;;;;;;5013566;28;20038;-67
2021/12/29 07:54:34;;;;;;;1.27;0.70;;;9.80;99.90;;;;;;5013019;28;20084;-68
2021/12/29 07:56:59;;;;;;;2.70;1.02;;;9.80;99.90;;;;;;5014802;28;20380;-68
2021/12/29 07:59:25;;;;;;;4.32;0.90;;;9.80;99.90;;;;;;5014033;28;20109;-67
2021/12/29 08:01:51;;;;;;;4.13;1.00;;;9.70;99.90;;;;;;5014191;28;20069;-68
2021/12/29 08:04:21;;;;;;;1.50;0.90;;;9.70;99.90;;;;;;5013213;28;20033;-70
2021/12/29 08:06:47;;;;;;;2.80;0.80;;;9.80;99.90;;;;;;5014196;28;20030;-67
2021/12/29 08:09:13;;;;;;;6.03;0.82;;;9.70;99.90;;;;;;5013277;28;20040;-67
2021/12/29 08:11:40;;;;;;;3.70;1.30;;;9.70;99.90;;;;;;5012875;28;20088;-67
2021/12/29 08:14:07;;;;;;;4.10;0.98;;;9.80;99.90;;;;;;5016339;28;20034;-67
2021/12/29 08:16:32;;;;;;;4.72;1.42;;;9.80;99.90;;;;;;5018066;28;20081;-67
2021/12/29 08:18:58;;;;;;;1.92;0.85;;;9.90;99.90;;;;;;5016234;28;20127;-67
2021/12/29 08:21:24;;;;;;;4.85;2.35;;;9.90;99.90;;;;;;5014588;28;20037;-68
2021/12/29 08:23:49;;;;;;;2.10;0.98;;;9.90;99.90;;;;;;5013236;28;20044;-68
2021/12/29 08:26:15;;;;;;;2.17;0.82;;;9.90;99.90;;;;;;5013224;28;20033;-68
2021/12/29 08:28:40;;;;;;;4.03;1.20;;;9.90;99.90;;;;;;5012251;28;20642;-69
2021/12/29 08:31:06;;;;;;;2.10;1.00;;;9.90;99.90;;;;;;5013596;28;20491;-68
2021/12/29 08:33:33;;;;;;;2.78;1.05;;;9.90;99.90;;;;;;5013260;28;20026;-68
2021/12/29 08:36:01;;;;;;;2.75;1.10;;;9.90;99.90;;;;;;5014317;28;20112;-71
2021/12/29 08:38:27;;;;;;;1.20;0.88;;;9.90;99.90;;;;;;5011993;28;20088;-70
2021/12/29 08:40:52;;;;;;;2.53;1.10;;;9.90;99.90;;;;;;5014368;28;20050;-69
2021/12/29 08:43:18;;;;;;;2.58;1.05;;;9.90;99.90;;;;;;5012547;28;20029;-66
2021/12/29 08:45:46;;;;;;;5.15;1.52;;;9.90;99.90;;;;;;5013408;28;20033;-67
2021/12/29 08:48:12;;;;;;;2.92;1.13;;;9.90;99.90;;;;;;5012412;28;20026;-68
2021/12/29 08:50:39;;;;;;;3.83;1.30;;;9.90;99.90;;;;;;5011956;28;20037;-67
2021/12/29 08:53:06;;;;;;;2.60;1.70;;;9.80;99.90;;;;;;5013843;28;20037;-68
2021/12/29 08:55:33;;;;;;;3.45;1.25;;;9.90;99.90;;;;;;5013599;28;20116;-68
2021/12/29 08:58:00;;;;;;;4.20;1.30;;;9.90;99.90;;;;;;5014779;28;20029;-69
2021/12/29 09:00:27;;;;;;;3.83;1.60;;;9.90;99.90;;;;;;5013373;28;20472;-70
2021/12/29 09:02:53;;;;;;;3.17;1.58;;;9.80;99.90;;;;;;5015016;28;20081;-68
2021/12/29 09:05:19;;;;;;;5.65;1.85;;;9.80;99.90;;;;;;5014125;28;20021;-67
2021/12/29 09:07:46;;;;;;;2.53;1.60;;;9.90;99.90;;;;;;5013168;28;20218;-66
2021/12/29 09:10:15;;;;;;;3.42;1.65;;;9.90;99.90;;;;;;5012085;28;20038;-67
2021/12/29 09:12:41;;;;;;;3.92;1.63;;;9.80;99.90;;;;;;5012790;28;20337;-68
2021/12/29 09:15:08;;;;;;;3.03;1.40;;;9.80;99.90;;;;;;5012388;28;20115;-69
2021/12/29 09:17:34;;;;;;;2.45;1.63;;;9.80;99.90;;;;;;5011677;28;20033;-68
2021/12/29 09:20:01;;;;;;;5.10;1.77;;;9.90;99.90;;;;;;5007905;28;20030;-67
2021/12/29 09:22:27;;;;;;;4.40;1.67;;;9.90;99.90;;;;;;5012376;28;20034;-68
2021/12/29 09:24:53;;;;;;;4.22;1.60;;;9.90;99.90;;;;;;5012071;28;20025;-67
2021/12/29 09:27:19;;;;;;;3.15;1.30;;;10.00;99.90;;;;;;5012531;28;20108;-68
2021/12/29 09:29:45;;;;;;;2.75;1.35;;;10.40;99.90;;;;;;5008297;28;20086;-69
2021/12/29 09:32:11;;;;;;;3.35;1.08;;;10.20;99.90;;;;;;5023330;28;20026;-66
2021/12/29 09:34:37;;;;;;;4.88;1.63;;;10.10;99.90;;;;;;5011045;28;20464;-68
2021/12/29 09:37:04;;;;;;;2.88;1.40;;;10.00;99.90;;;;;;5011446;28;20450;-66
2021/12/29 09:39:31;;;;;;;4.40;1.33;;;9.90;99.90;;;;;;5011091;28;20038;-68
2021/12/29 09:41:57;;;;;;;1.70;1.20;;;10.00;99.90;;;;;;5012651;28;20045;-67
2021/12/29 09:44:23;;;;;;;4.80;1.77;;;10.00;99.90;;;;;;5010844;28;20026;-66
2021/12/29 09:46:49;;;;;;;3.25;1.13;;;9.90;99.90;;;;;;5011390;28;20491;-67
2021/12/29 09:49:16;;;;;;;4.07;1.67;;;9.90;99.90;;;;;;5010826;28;20117;-68
2021/12/29 09:51:42;;;;;;;4.50;1.40;;;9.80;99.90;;;;;;5001331;28;20064;-67
2021/12/29 09:54:08;;;;;;;12.75;1.23;;;9.80;99.90;;;;;;4992800;28;20072;-64
2021/12/29 09:56:34;;;;;;;4.18;1.88;;;11.10;99.90;;;;;;5002139;28;20034;-70
2021/12/29 09:58:59;;;;;;;6.03;1.70;;;10.60;99.90;;;;;;5011214;28;20391;-72
2021/12/29 10:01:26;;;;;;;2.40;1.52;;;10.30;99.90;;;;;;5010163;28;20037;-68
2021/12/29 10:03:51;;;;;;;9.98;1.58;;;10.10;99.90;;;;;;5004909;28;20038;-69
2021/12/29 10:06:17;;;;;;;2.65;1.60;;;10.00;99.90;;;;;;5011984;28;20456;-68
2021/12/29 10:08:49;;;;;;;5.95;2.15;;;9.80;99.90;;;;;;5006095;28;20034;-69
2021/12/29 10:11:18;;;;;;;3.97;1.85;;;9.80;99.90;;;;;;5010928;28;20034;-68
2021/12/29 10:13:47;;;;;;;6.57;1.70;;;9.80;99.90;;;;;;5006710;28;20049;-69
2021/12/29 10:16:19;;;;;;;6.18;2.35;;;9.80;99.90;;;;;;4996047;28;20132;-67
2021/12/29 10:18:53;;;;;;;8.57;2.30;;;9.90;99.90;;;;;;5013329;28;20451;-68
2021/12/29 10:21:22;;;;;;;2.58;1.73;;;10.00;99.90;;;;;;5014172;28;20032;-67
2021/12/29 10:23:51;;;;;;;2.35;1.48;;;10.00;99.90;;;;;;5010114;28;20030;-67
2021/12/29 10:26:21;;;;;;;6.40;1.77;;;10.00;99.90;;;;;;5007250;28;20030;-69
2021/12/29 10:28:53;;;;;;;4.95;1.70;;;10.10;99.90;;;;;;4998281;28;20103;-69
2021/12/29 10:31:22;;;;;;;;;;;10.10;99.90;;;;;;5008440;28;20108;-67
2021/12/29 10:34:00;;;;;;;3.17;1.30;;;10.10;99.90;;;;;;5009950;28;19913;-68
2021/12/29 10:36:29;;;;;;;4.05;1.65;;;10.20;99.90;;;;;;5011663;28;20442;-68
2021/12/29 10:39:05;;;;;;;3.30;1.80;;;10.20;99.90;;;;;;5009829;28;20080;-68
2021/12/29 10:41:42;;;;;;;7.03;1.70;;;10.20;99.90;;;;;;5010025;28;20034;-70
2021/12/29 10:44:08;;;;;;;4.55;1.50;;;10.20;99.90;;;;;;5010664;28;20038;-69
2021/12/29 10:46:34;;;;;;;3.40;1.75;;;10.20;99.90;;;;;;5009782;28;20534;-68
2021/12/29 10:49:06;;;;;;;5.57;1.48;;;10.30;99.90;;;;;;5011595;28;20076;-69
2021/12/29 10:51:43;;;;;;;4.00;1.10;;;10.30;99.90;;;;;;5008229;28;20042;-69
2021/12/29 10:54:13;;;;;;;3.80;1.23;;;10.30;99.90;;;;;;5009596;28;20399;-68
2021/12/29 10:56:41;;;;;;;5.13;1.52;;;10.40;99.90;;;;;;5005292;28;20032;-68
2021/12/29 10:59:30;;;;;;;5.35;1.20;;;10.40;99.90;;;;;;5005835;28;20030;-69
2021/12/29 11:01:56;;;;;;;6.55;1.20;;;10.40;99.90;;;;;;5005265;28;20103;-67
2021/12/29 11:04:23;;;;;;;3.88;0.90;;;10.30;99.90;;;;;;5008323;28;20439;-73
2021/12/29 11:06:50;;;;;;;3.05;1.00;;;10.90;99.90;;;;;;5014086;28;20088;-79
2021/12/29 11:09:24;;;;;;;4.18;1.58;;;12.10;99.90;;;;;;5013089;28;20026;-66
2021/12/29 11:11:49;;;;;;;2.95;0.88;;;13.10;99.90;;;;;;5011623;28;20041;-63
2021/12/29 11:14:24;;;;;;;3.10;0.95;;;13.50;99.90;;;;;;5012267;28;20026;-72
2021/12/29 11:17:03;;;;;;;4.07;1.30;;;12.90;99.90;;;;;;5012498;28;20065;-69
2021/12/29 11:19:30;;;;;;;3.30;0.98;;;12.50;99.90;;;;;;4997621;28;20018;-72
2021/12/29 11:22:05;;;;;;;3.88;0.95;;;11.90;99.90;;;;;;4997538;28;20057;-69
2021/12/29 11:24:31;;;;;;;3.65;1.58;;;11.70;99.90;;;;;;5016085;28;20065;-72
2021/12/29 11:26:58;;;;;;;2.42;0.80;;;11.50;99.90;;;;;;5008358;28;20086;-71
2021/12/29 11:29:25;;;;;;;3.13;1.23;;;11.50;99.90;;;;;;4997492;28;20468;-70
2021/12/29 11:32:00;;;;;;;2.20;1.05;;;11.40;99.90;;;;;;5012332;28;20034;-70
2021/12/29 11:34:28;;;;;;;7.20;1.42;;;11.20;99.90;;;;;;5014958;28;20036;-69
2021/12/29 11:37:05;;;;;;;2.85;1.05;;;11.20;99.90;;;;;;5016084;28;20032;-69
2021/12/29 11:39:33;;;;;;;5.00;1.00;;;11.40;99.90;;;;;;5015188;28;20029;-68
2021/12/29 11:41:59;;;;;;;2.97;1.00;;;11.50;99.90;;;;;;5013708;28;20069;-69
2021/12/29 11:44:24;;;;;;;2.25;1.00;;;11.60;99.90;;;;;;5015728;28;20030;-72
2021/12/29 11:46:50;;;;;;;4.15;1.05;;;11.60;99.90;;;;;;5015838;28;20027;-69
2021/12/29 11:49:18;;;;;;;4.03;1.70;;;11.60;99.90;;;;;;5015878;28;20030;-70
2021/12/29 11:52:14;;;;;;;3.78;1.25;;;11.90;99.90;;;;;;5013936;28;20321;-67
2021/12/29 11:55:05;;;;;;;3.58;0.73;;;12.40;99.90;;;;;;5014127;28;20025;-69
2021/12/29 11:57:32;;;;;;;3.42;1.27;;;12.70;99.90;;;;;;5015222;28;20109;-69
2021/12/29 12:00:08;;;;;;;4.63;1.80;;;12.60;99.90;;;;;;5013907;28;20113;-69
2021/12/29 12:02:35;;;;;;;6.78;1.10;;;12.80;99.90;;;;;;5015117;28;20033;-68
2021/12/29 12:05:07;;;;;;;8.45;1.63;;;12.60;99.90;;;;;;5015188;28;20026;-67
2021/12/29 12:07:33;;;;;;;3.97;0.80;;;12.70;99.90;;;;;;5014660;28;20022;-71
2021/12/29 12:10:03;;;;;;;3.95;1.08;;;12.70;99.90;;;;;;5014881;28;20022;-71
2021/12/29 12:12:44;;;;;;;5.43;0.80;;;12.70;99.90;;;;;;5014718;28;20119;-69
2021/12/29 12:15:12;;;;;;;4.63;0.98;;;12.60;99.90;;;;;;5014179;28;20054;-73
2021/12/29 12:17:40;;;;;;;3.13;0.95;;;12.40;99.90;;;;;;5015764;28;20034;-70
2021/12/29 12:20:08;;;;;;;5.18;1.08;;;12.20;99.90;;;;;;5014765;28;20044;-67
2021/12/29 12:22:47;;;;;;;5.25;0.70;;;12.10;99.90;;;;;;5015105;28;20054;-69
2021/12/29 12:25:18;;;;;;;3.30;1.00;;;12.00;99.90;;;;;;5014996;28;20388;-67
2021/12/29 12:27:45;;;;;;;4.17;1.30;;;11.80;99.90;;;;;;5014726;28;20022;-70
2021/12/29 12:30:20;;;;;;;4.30;1.13;;;11.70;99.90;;;;;;5015119;28;20108;-68
2021/12/29 12:32:51;;;;;;;5.28;1.30;;;11.60;99.90;;;;;;5013640;28;20106;-71
2021/12/29 12:35:26;;;;;;;;;;;11.50;99.90;;;;;;5013544;28;20033;-67
2021/12/29 12:37:52;;;;;;;2.33;0.95;;;11.40;99.90;;;;;;5015749;28;19909;-69
2021/12/29 12:40:25;;;;;;;4.80;1.13;;;11.30;99.90;;;;;;5011055;28;20474;-72
2021/12/29 12:43:10;;;;;;;5.45;1.50;;;11.40;99.90;;;;;;4995432;28;20030;-69
2021/12/29 12:45:37;;;;;;;3.92;1.33;;;11.30;99.90;;;;;;5008672;28;20045;-70
2021/12/29 12:48:23;;;;;;;3.53;1.00;;;11.30;99.90;;;;;;5009997;28;20030;-70
2021/12/29 12:50:49;;;;;;;1.90;0.57;;;11.30;99.90;;;;;;5009120;28;20034;-71
2021/12/29 12:53:25;;;;;;;2.90;1.05;;;11.20;99.90;;;;;;4998503;28;20088;-70
2021/12/29 12:55:56;;;;;;;5.35;1.67;;;11.20;99.90;;;;;;4995354;28;20030;-71
2021/12/29 12:58:25;;;;;;;5.18;1.67;;;11.30;99.90;;;;;;4997396;28;20083;-72
2021/12/29 13:00:54;;;;;;;5.78;1.80;;;11.30;99.90;;;;;;4996249;28;20041;-76
2021/12/29 13:03:23;;;;;;;3.47;1.25;;;11.30;99.90;;;;;;5008644;28;20109;-71